Terminal Aerodrome Forecast
Issued by NWS

Home | Current Version | Previous Version | Text Only | Print | Product List | Glossary On
Versions: 1 2 3 4 5 6 7 8 9 10 11 12 13 14 15 16 17 18 19 20 21
000
FTUS43 KSGF 261600 AAB
TAFBBG
TAF AMD
KBBG 261613Z 2616/2712 26007KT P6SM FEW040 BKN060
     FM261800 29012G20KT P6SM SCT060
     FM270000 30012KT P6SM SCT250=

USA.gov is the U.S. government's official web portal to all federal, state and local government web resources and services.